Du har inga inställningar för hoppväder.nu

Hoppväder.nu

Senast uppdaterat 13:08

UTC-tid

2022-11-27 kl. 12:08


Sol och måne

Solen går upp 8:15 och går ner 15:29 (beräknade cirkatider)
Nästa fullmåne blir om 11 dagar (2022-12-08)

METAR

ESMX (Växjö)
(18 minuter sedan)
ESMX 271150Z 18005KT 5000 BR OVC002 04/04 Q1026=



ESMT (Halmstad)
(18 minuter sedan)
ESMT 271150Z 15007KT 120V180 9999 BKN007 07/06 Q1024=



ESGJ (Jönköping)
(18 minuter sedan)
ESGJ 271150Z AUTO 15006KT 8000 BKN005/// OVC008/// 03/03 Q1025=



ESMK (Everöd)
(18 minuter sedan)
ESMK 271150Z 15005KT 9999 FEW011 BKN027 08/07 Q1025=






TAF

ESMX (Växjö)
(38 minuter sedan)
ESMX 271130Z 2712/2718 08004KT 8000 BKN010 PROB40 2712/2718 3000 BR BKN003=



ESMT (Halmstad)
(60 minuter sedan)
ESMT 271108Z 2712/2720 13008KT 6000 BKN010 TEMPO 2712/2714 4000 BR SCT010 TEMPO 2714/2720 BKN008=



ESGJ (Jönköping)
ESGJ



ESMK (Everöd)
(60 minuter sedan)
ESMK 271108Z 2712/2719 15005KT 9999 SCT012 BKN025 TEMPO 2712/2716 BKN012 BECMG 2716/2719 4000 BR BKN008=





Kodnycklar till TAF och METAR






LHP

(Feringe är område se22g i Delområde 2)

Översikt

ÖVERSIKT FÖR OMRÅDE se2 UTFÄRDAD 270829

GÄLLANDE DEN 27 NOVEMBER 2022 MELLAN 09 OCH 17 UTC


Väderöversikt
Sydlig luftström med fuktig luft.

Sikt under 5 kilometer eller molnbas under 1000 fot
09-13UTC: I hela området

Måttlig eller svår isbildning
09-13UTC: I hela området

Måttlig eller svår turbulens
Väntas inte förekomma under perioden


Delområde 2

PROGNOS FÖR OMRÅDE se22 UTFÄRDAD 270829
GÄLLANDE DEN 27 NOVEMBER 2022 MELLAN 09 OCH 17 UTC


Måttlig eller svår turbulens
09-17UTC: I hela området: Väntas inte förekomma under perioden

Måttlig eller svår isbildning
09-17UTC: I hela området: måttlig isbildning 3000ft - FL050

Sikt/Väder/Moln
09-13UTC: Område se22d,se22c,se22k: Sikt <1.5km - >8km i dis, dimma, duggregn. Molnbas <500ft - >2000ft.

09-17UTC: Område se22e,se22h,se22g,se22f: Sikt >8km i dis, lokalt <1.5km i dimma, duggregn. Molnbas <500ft, lokalt 1500ft - 2000ft.
Område se22l: Sikt >8km, lokalt 1.5km - 3km i dis, duggregn. Molnbas >2000ft, lokalt 500ft - 1000ft.
Område se22a,se22b,se22i,se22j: Sikt <1.5km - >8km i dis, dimma, duggregn. Molnbas <500ft - >2000ft.

13-17UTC: Område se22d,se22c,se22k: Sikt >8km, lokalt 1.5km - 3km i dis, duggregn. Molnbas >2000ft, lokalt 500ft - 1000ft.


Molnöversida
09-17UTC: I hela området: Molnöversida FL050.

CB/TCU Moln
09-17UTC: I hela området: Väntas inte förekomma under perioden

Nollgradersisoterm
09-17UTC: I hela området: Noll grader 2000ft - 4000ft.

Vind vid marken
09-11UTC: Område se22e: SO/1-5 knop.
Område se22h: O-SO/0-6 knop.
Område se22d: N/0-8 knop, byar upp till 12 knop.
Område se22c: NV-N/0-6 knop.
Område se22l: S/2-12 knop, byar upp till 15 knop.
Område se22i: O-SO/2-6 knop, byar upp till 13 knop.
Område se22k: SO/2-13 knop, byar upp till 17 knop.
Område se22f: Lugnt.
Område se22j: O/2-4 knop.
Område se22a: NV/0-5 knop.
Område se22b: Vrb/0-8 knop.
Område se22g: SO/2-8 knop.

11-13UTC: Område se22g: SO/2-7 knop.
Område se22c: NV/0-8 knop, byar upp till 11 knop.
Område se22h: SO/1-5 knop.
Område se22f: SO/1-2 knop.
Område se22j: NO-O/2-4 knop.
Område se22i: O-SO/2-5 knop, byar upp till 13 knop.
Område se22a: Vrb/0-5 knop.
Område se22k: SO/1-13 knop, byar upp till 18 knop.
Område se22e: SO-S/1-5 knop, byar upp till 13 knop.
Område se22l: S/3-12 knop, byar upp till 15 knop.
Område se22d: NV/0-7 knop.
Område se22b: NO-O/0-8 knop, byar upp till 12 knop.

13-15UTC: Område se22c: N-NO/0-8 knop, byar upp till 12 knop.
Område se22l: S/4-13 knop, byar upp till 17 knop.
Område se22h: O-SO/1-5 knop.
Område se22e: O-SO/1-6 knop, byar upp till 13 knop.
Område se22g: O-SO/2-9 knop, byar upp till 14 knop.
Område se22f: SO/1-3 knop.
Område se22a: Lugnt.
Område se22b: NO-O/0-9 knop, byar upp till 12 knop.
Område se22j: O/2-4 knop.
Område se22k: SO/2-15 knop, byar upp till 19 knop.
Område se22d: N/0-8 knop, byar upp till 11 knop.

13-17UTC: Område se22i: O-SO/2-6 knop, byar upp till 13 knop.

15-17UTC: Område se22g: SO/2-8 knop, byar upp till 13 knop.
Område se22f: O-SO/1-3 knop.
Område se22d: Vrb/1-9 knop, byar upp till 12 knop.
Område se22a: O/0-6 knop.
Område se22b: O/0-11 knop, byar upp till 13 knop.
Område se22c: NO-O/0-10 knop, byar upp till 13 knop.
Område se22j: O/2-6 knop, byar upp till 14 knop.
Område se22l: S/5-14 knop, byar upp till 18 knop.
Område se22k: SO/2-16 knop, byar upp till 21 knop.
Område se22h: O-SO/2-7 knop.
Område se22e: O-SO/2-5 knop.


Genomsnittlig vind och temperatur för området

2000ft:
09-11UTC: 200/7kt +0.
11-15UTC: 210/9kt +1.
15-17UTC: 190/9kt +1.

FL050:
09-11UTC: 260/6kt -3.
11-13UTC: 250/7kt -3.
13-17UTC: 260/8kt -3.

FL100:
09-11UTC: 350/11kt -10.
11-13UTC: 340/9kt -10.
13-15UTC: 340/7kt -9.
15-17UTC: 340/6kt -9.

Lägsta QNH
09-13UTC: I hela området: 1024 hPa
13-15UTC: I hela området: 1023 hPa
15-17UTC: I hela området: 1022 hPa

OBS! endast utbredd måttlig eller svår isbildning och turbulens prognostiseras i LLF.
Avsaknad av isbildning och turbulens i prognosen utesluter inte förekomst av lätt isbildning och turbulens.
För indikation på lätt isbildning, var vänlig kontrollera om prognosen för molntopp ligger högre än nollgradersisotermen.
Förekomst av TCU eller CB medför alltid en risk för måttlig eller svår isbildning och turbulens även om det inte framgår explicit av prognosen.








Spotting

Hur fungerar spotthjälpen och Vindkartan?

Markvind är ca 1-4 m/s.
Vind på 600 m ca 5 m/s.
Vind på 1500 m ca 4 m/s.
Vind på 3000 m ca 5 m/s.
Filip Helge flyger ca 37 m/s över marken på finalen.
Du driver ca 208 m bakåt i frifall. (278 m)
Lämplig spot är 2 sekunder eller 73 m innan gropen.
(-0s eller -0 m)
För små grupper eller ensamhoppare bör man vänta 4-6 sekunder mellan grupperna.
För större grupper bör man vänta 8-10 sekunder mellan grupperna.


Vindkartan

Senast uppdaterad 13:08




All data kommer från LFV.se